TimeCST,TemperatureF,Dew PointF,Humidity,Sea Level PressureIn,VisibilityMPH,Wind Direction,Wind SpeedMPH,Gust SpeedMPH,PrecipitationIn,Events,Conditions,WindDirDegrees,DateUTC
12:12 AM,28.4,21.2,74,30.20,9.0,NNW,12.7,-,N/A,Snow,Light Snow,340,2013-03-02 06:12:00
12:51 AM,28.9,21.9,75,30.24,9.0,North,12.7,-,0.00,Snow,Light Snow,350,2013-03-02 06:51:00
1:44 AM,28.4,21.2,74,30.20,9.0,NNW,15.0,-,0.00,Snow,Light Snow,340,2013-03-02 07:44:00
1:51 AM,28.0,21.9,78,30.24,6.0,NNW,15.0,-,0.00,Snow,Light Snow,340,2013-03-02 07:51:00
2:51 AM,28.0,21.0,75,30.22,8.0,NNW,10.4,-,0.00,Snow,Light Snow,340,2013-03-02 08:51:00
3:04 AM,26.6,21.2,80,30.19,9.0,NNW,10.4,-,0.00,Snow,Light Snow,340,2013-03-02 09:04:00
3:51 AM,27.0,21.0,78,30.22,9.0,NNW,11.5,-,0.00,Snow,Light Snow,340,2013-03-02 09:51:00
4:08 AM,26.6,21.2,80,30.19,9.0,North,12.7,-,0.00,Snow,Light Snow,350,2013-03-02 10:08:00
4:51 AM,27.0,19.9,75,30.24,9.0,NNW,10.4,-,0.00,Snow,Light Snow,340,2013-03-02 10:51:00
5:51 AM,27.0,19.0,72,30.24,9.0,NNW,11.5,-,0.00,Snow,Light Snow,340,2013-03-02 11:51:00
6:51 AM,28.0,19.0,69,30.26,9.0,NW,10.4,-,0.00,Snow,Light Snow,320,2013-03-02 12:51:00
7:51 AM,28.0,19.0,69,30.28,9.0,NNW,11.5,-,0.00,Snow,Light Snow,330,2013-03-02 13:51:00
8:51 AM,28.9,19.0,67,30.28,9.0,NNW,13.8,-,0.00,Snow,Light Snow,340,2013-03-02 14:51:00
9:51 AM,30.0,19.0,64,30.29,9.0,NNW,13.8,-,0.00,Snow,Light Snow,340,2013-03-02 15:51:00
10:51 AM,32.0,19.0,59,30.29,9.0,NNW,15.0,18.4,0.00,Snow,Light Snow,330,2013-03-02 16:51:00
11:51 AM,33.1,19.0,56,30.29,10.0,WNW,11.5,23.0,0.00,,Mostly Cloudy,300,2013-03-02 17:51:00
12:51 PM,32.0,19.0,59,30.27,10.0,NW,17.3,-,N/A,,Mostly Cloudy,320,2013-03-02 18:51:00
1:51 PM,35.1,19.0,52,30.26,10.0,NNW,16.1,20.7,N/A,,Mostly Cloudy,330,2013-03-02 19:51:00
2:51 PM,33.1,17.1,52,30.25,10.0,NNW,12.7,-,N/A,,Mostly Cloudy,340,2013-03-02 20:51:00
3:51 PM,35.1,18.0,50,30.25,10.0,WNW,13.8,20.7,N/A,,Mostly Cloudy,300,2013-03-02 21:51:00
4:51 PM,32.0,16.0,52,30.25,10.0,NW,15.0,-,N/A,,Mostly Cloudy,310,2013-03-02 22:51:00
5:51 PM,30.9,16.0,54,30.27,10.0,NW,9.2,-,N/A,,Scattered Clouds,320,2013-03-02 23:51:00
6:51 PM,28.0,17.1,63,30.27,10.0,WNW,5.8,-,N/A,,Partly Cloudy,300,2013-03-03 00:51:00
7:51 PM,28.0,18.0,66,30.28,10.0,WNW,9.2,-,N/A,,Partly Cloudy,290,2013-03-03 01:51:00
8:51 PM,27.0,17.1,66,30.27,10.0,WNW,8.1,-,N/A,,Clear,290,2013-03-03 02:51:00
9:51 PM,25.0,17.1,72,30.27,10.0,WNW,4.6,-,N/A,,Clear,290,2013-03-03 03:51:00
10:51 PM,25.0,17.1,72,30.26,10.0,NW,3.5,-,N/A,,Clear,310,2013-03-03 04:51:00
11:51 PM,23.0,16.0,74,30.26,10.0,NW,3.5,-,N/A,,Clear,310,2013-03-03 05:51:00